Time;durP1;ratioP1;P1;durP2;ratioP2;P2;SDS_P1;SDS_P2;PMS_P1;PMS_P2;Temp;Humidity;BMP_temperature;BMP_pressure;BME280_temperature;BME280_humidity;BME280_pressure;Samples;Min_cycle;Max_cycle;Signal;HPM_P1;HPM_P2
2022/01/28 00:01:04;;;;;;;7.75;3.72;;;;;;;;;;5070799;28;20032;-70
2022/01/28 00:03:36;;;;;;;5.63;3.37;;;;;;;;;;5068652;28;20029;-70
2022/01/28 00:06:03;;;;;;;5.10;3.17;;;;;;;;;;5070126;28;20484;-71
2022/01/28 00:08:28;;;;;;;4.63;3.20;;;;;;;;;;5069898;28;20289;-73
2022/01/28 00:10:54;;;;;;;3.73;2.40;;;;;;;;;;5070132;28;20491;-74
2022/01/28 00:39:32;;;;;;;3.37;2.00;;;;;;;;;;5069470;28;20116;-73
2022/01/28 00:41:57;;;;;;;2.27;1.77;;;;;;;;;;5069634;28;20024;-72
2022/01/28 00:44:23;;;;;;;5.13;1.60;;;;;;;;;;5067902;28;20064;-75
2022/01/28 00:46:48;;;;;;;4.40;1.70;;;;;;;;;;5068007;28;20024;-73
2022/01/28 00:49:14;;;;;;;2.27;1.40;;;;;;;;;;5069424;28;20365;-75
2022/01/28 00:51:39;;;;;;;1.93;1.37;;;;;;;;;;5069294;28;20107;-74
2022/01/28 00:54:05;;;;;;;1.53;1.30;;;;;;;;;;5085106;28;20370;-73
2022/01/28 00:56:30;;;;;;;3.77;1.70;;;;;;;;;;5069313;28;20130;-74
2022/01/28 00:58:56;;;;;;;2.70;1.00;;;;;;;;;;5068219;28;20316;-74
2022/01/28 01:01:21;;;;;;;2.10;1.30;;;;;;;;;;5069270;28;20342;-74
2022/01/28 01:03:47;;;;;;;2.47;1.60;;;;;;;;;;5069370;28;20059;-74
2022/01/28 01:06:12;;;;;;;1.67;1.00;;;;;;;;;;5067868;28;20025;-74
2022/01/28 01:08:38;;;;;;;2.23;0.90;;;;;;;;;;5069385;28;20032;-73
2022/01/28 01:11:05;;;;;;;5.33;1.53;;;;;;;;;;5069339;28;20107;-74
2022/01/28 01:13:35;;;;;;;3.83;1.43;;;;;;;;;;5067909;28;20344;-74
2022/01/28 01:16:01;;;;;;;4.27;1.27;;;;;;;;;;5069376;28;20119;-73
2022/01/28 01:18:38;;;;;;;3.63;1.80;;;;;;;;;;5067741;28;20039;-73
2022/01/28 01:21:08;;;;;;;6.00;1.03;;;;;;;;;;5069290;28;20048;-73
2022/01/28 01:23:37;;;;;;;2.37;1.23;;;;;;;;;;5069083;28;20290;-74
2022/01/28 01:28:34;;;;;;;2.10;1.03;;;;;;;;;;5069033;28;20115;-74
2022/01/28 01:31:02;;;;;;;1.10;1.00;;;;;;;;;;5068248;28;20113;-74
2022/01/28 01:33:31;;;;;;;2.53;1.00;;;;;;;;;;5067398;28;20077;-73
2022/01/28 01:36:01;;;;;;;2.27;0.93;;;;;;;;;;5068999;28;20487;-76
2022/01/28 01:38:30;;;;;;;1.30;0.97;;;;;;;;;;5068586;28;20044;-74
2022/01/28 01:40:59;;;;;;;1.57;1.00;;;;;;;;;;5069150;28;20047;-74
2022/01/28 01:53:49;;;;;;;0.80;0.70;;;;;;;;;;5073052;28;20059;-74
2022/01/28 01:56:16;;;;;;;0.80;0.70;;;;;;;;;;5072769;28;20065;-74
2022/01/28 01:58:41;;;;;;;1.10;0.73;;;;;;;;;;5071626;28;20024;-74
2022/01/28 02:01:07;;;;;;;3.20;0.70;;;;;;;;;;5071542;28;20440;-74
2022/01/28 02:03:33;;;;;;;0.97;0.80;;;;;;;;;;5071276;28;20143;-73
2022/01/28 02:06:00;;;;;;;1.30;0.80;;;;;;;;;;5087854;28;20040;-74
2022/01/28 02:08:40;;;;;;;2.40;0.70;;;;;;;;;;5070958;28;20031;-73
2022/01/28 02:11:05;;;;;;;2.43;0.77;;;;;;;;;;5071040;28;20028;-75
2022/01/28 02:13:35;;;;;;;0.70;0.57;;;;;;;;;;5071946;28;20096;-73
2022/01/28 02:16:01;;;;;;;0.60;0.60;;;;;;;;;;5072255;28;20028;-75
2022/01/28 02:18:27;;;;;;;3.43;1.20;;;;;;;;;;5070818;28;20024;-74
2022/01/28 02:20:56;;;;;;;3.77;0.60;;;;;;;;;;5072226;28;20028;-73
2022/01/28 02:23:23;;;;;;;2.37;0.67;;;;;;;;;;5070913;28;20093;-75
2022/01/28 02:25:49;;;;;;;0.97;0.83;;;;;;;;;;5071838;28;20020;-73
2022/01/28 02:28:19;;;;;;;1.90;0.50;;;;;;;;;;5072217;28;20025;-73
2022/01/28 02:30:45;;;;;;;1.77;0.80;;;;;;;;;;5071890;28;20024;-74
2022/01/28 02:33:14;;;;;;;0.93;0.40;;;;;;;;;;5072161;28;20039;-74
2022/01/28 02:35:42;;;;;;;0.87;0.73;;;;;;;;;;5071901;28;20017;-74
2022/01/28 02:38:09;;;;;;;0.40;0.40;;;;;;;;;;5071723;28;20115;-74
2022/01/28 02:40:35;;;;;;;1.50;0.67;;;;;;;;;;5070805;28;20028;-73
2022/01/28 02:43:14;;;;;;;0.73;0.50;;;;;;;;;;5069475;28;20090;-74
2022/01/28 02:45:42;;;;;;;3.17;0.50;;;;;;;;;;5069073;28;20485;-73
2022/01/28 02:48:15;;;;;;;1.37;0.40;;;;;;;;;;5069322;28;20024;-74
2022/01/28 02:50:48;;;;;;;1.13;0.40;;;;;;;;;;5070494;28;20078;-73
2022/01/28 02:53:22;;;;;;;2.80;0.60;;;;;;;;;;5070140;28;20020;-74
2022/01/28 02:55:55;;;;;;;2.70;1.07;;;;;;;;;;5070533;28;20017;-74
2022/01/28 02:58:24;;;;;;;1.50;0.80;;;;;;;;;;5069169;28;20404;-74
2022/01/28 03:00:51;;;;;;;8.77;0.77;;;;;;;;;;5070793;28;20020;-73
2022/01/28 03:03:22;;;;;;;5.03;0.60;;;;;;;;;;5070559;28;20047;-75
2022/01/28 03:05:49;;;;;;;1.65;0.73;;;;;;;;;;5068984;28;20048;-74
2022/01/28 03:08:16;;;;;;;3.23;0.33;;;;;;;;;;5069469;28;20028;-73
2022/01/28 03:15:55;;;;;;;3.50;0.47;;;;;;;;;;5070616;28;20126;-75
2022/01/28 03:18:28;;;;;;;5.17;0.53;;;;;;;;;;5069143;28;20029;-74
2022/01/28 03:23:19;;;;;;;5.77;0.93;;;;;;;;;;5071290;28;20020;-73
2022/01/28 03:25:46;;;;;;;1.57;0.50;;;;;;;;;;5069730;28;20073;-73
2022/01/28 03:28:13;;;;;;;3.00;0.67;;;;;;;;;;5069965;28;20032;-74
2022/01/28 03:30:39;;;;;;;0.60;0.40;;;;;;;;;;5068469;28;20028;-73
2022/01/28 03:33:04;;;;;;;1.27;0.50;;;;;;;;;;5068906;28;20024;-73
2022/01/28 03:35:31;;;;;;;2.77;0.87;;;;;;;;;;5069822;28;20028;-74
2022/01/28 03:38:02;;;;;;;2.90;0.70;;;;;;;;;;5020643;28;1399061;-74
2022/01/28 03:40:33;;;;;;;1.30;0.63;;;;;;;;;;5069599;28;20119;-73
2022/01/28 03:42:59;;;;;;;2.13;0.80;;;;;;;;;;5070856;28;20469;-73
2022/01/28 03:45:25;;;;;;;1.80;0.70;;;;;;;;;;5070690;28;20040;-74
2022/01/28 03:47:50;;;;;;;4.87;0.80;;;;;;;;;;5069149;28;20105;-73
2022/01/28 03:50:16;;;;;;;1.07;0.50;;;;;;;;;;5070858;28;20032;-73
2022/01/28 03:52:41;;;;;;;5.80;0.60;;;;;;;;;;5070479;28;20154;-74
2022/01/28 03:55:07;;;;;;;1.80;0.33;;;;;;;;;;5070539;28;20056;-74
2022/01/28 03:57:33;;;;;;;1.60;0.60;;;;;;;;;;5070303;28;20036;-74
2022/01/28 03:59:58;;;;;;;1.80;0.60;;;;;;;;;;5070768;28;20029;-74
2022/01/28 04:02:27;;;;;;;2.70;0.50;;;;;;;;;;5070244;28;20032;-73
2022/01/28 04:12:47;;;;;;;3.53;0.67;;;;;;;;;;5070545;28;20032;-74
2022/01/28 04:17:44;;;;;;;4.93;1.00;;;;;;;;;;5071050;28;20360;-75
2022/01/28 04:20:10;;;;;;;1.83;0.80;;;;;;;;;;5072442;28;20025;-75
2022/01/28 04:22:35;;;;;;;1.37;0.50;;;;;;;;;;5070241;28;20082;-73
2022/01/28 04:25:01;;;;;;;3.07;0.80;;;;;;;;;;5070288;28;20047;-74
2022/01/28 04:27:27;;;;;;;3.43;0.60;;;;;;;;;;5068778;28;20032;-73
2022/01/28 04:29:52;;;;;;;1.87;0.50;;;;;;;;;;5068300;28;20436;-74
2022/01/28 04:32:19;;;;;;;1.77;0.60;;;;;;;;;;5068887;28;20477;-74
2022/01/28 04:34:45;;;;;;;4.77;0.97;;;;;;;;;;5069420;28;20016;-73
2022/01/28 04:37:35;;;;;;;2.77;0.83;;;;;;;;;;5069751;28;20107;-74
2022/01/28 04:48:20;;;;;;;1.83;0.60;;;;;;;;;;5045845;28;20048;-74
2022/01/28 04:51:12;;;;;;;4.23;0.60;;;;;;;;;;5069416;28;20021;-75
2022/01/28 04:53:51;;;;;;;3.15;0.70;;;;;;;;;;5067953;28;20029;-74
2022/01/28 04:56:28;;;;;;;5.87;1.00;;;;;;;;;;5068517;28;20029;-74
2022/01/28 05:07:07;;;;;;;3.60;1.03;;;;;;;;;;5069536;28;20032;-73
2022/01/28 05:13:11;;;;;;;3.57;0.93;;;;;;;;;;5069792;28;20021;-74
2022/01/28 05:28:11;;;;;;;9.13;0.90;;;;;;;;;;5069217;28;20485;-73
2022/01/28 05:30:37;;;;;;;0.63;0.60;;;;;;;;;;5067301;28;20028;-73
2022/01/28 05:33:02;;;;;;;3.17;0.60;;;;;;;;;;5069138;28;20028;-74
2022/01/28 05:35:30;;;;;;;3.73;0.90;;;;;;;;;;5069064;28;20484;-74
2022/01/28 05:37:57;;;;;;;2.87;0.80;;;;;;;;;;5068659;28;20033;-74
2022/01/28 05:40:22;;;;;;;2.27;0.63;;;;;;;;;;5066078;28;20028;-73
2022/01/28 05:42:48;;;;;;;1.90;0.57;;;;;;;;;;5068346;28;20035;-75
2022/01/28 05:45:15;;;;;;;4.27;1.00;;;;;;;;;;5068456;28;20453;-74
2022/01/28 05:47:40;;;;;;;6.13;0.63;;;;;;;;;;5067159;28;20075;-73
2022/01/28 05:50:06;;;;;;;3.97;1.13;;;;;;;;;;5068916;28;20036;-74
2022/01/28 05:52:32;;;;;;;3.53;0.90;;;;;;;;;;5072130;28;20028;-74
2022/01/28 05:54:59;;;;;;;3.43;0.93;;;;;;;;;;5072064;28;20020;-74
2022/01/28 05:57:24;;;;;;;7.53;0.83;;;;;;;;;;5069760;28;20052;-73
2022/01/28 05:59:50;;;;;;;4.70;0.77;;;;;;;;;;5068529;28;20641;-74
2022/01/28 06:02:17;;;;;;;2.23;0.80;;;;;;;;;;5068710;28;20074;-74
2022/01/28 06:04:43;;;;;;;6.40;1.30;;;;;;;;;;5067083;28;20021;-73
2022/01/28 06:07:08;;;;;;;2.83;0.50;;;;;;;;;;5066821;28;20039;-74
2022/01/28 06:09:34;;;;;;;1.90;1.27;;;;;;;;;;5068618;28;20020;-74
2022/01/28 06:11:59;;;;;;;3.10;0.77;;;;;;;;;;5050645;28;20382;-74
2022/01/28 06:14:25;;;;;;;3.57;0.70;;;;;;;;;;5062484;28;20023;-75
2022/01/28 06:16:52;;;;;;;1.70;0.57;;;;;;;;;;5047739;28;20029;-75
2022/01/28 06:19:17;;;;;;;3.43;1.13;;;;;;;;;;5048328;28;20036;-74
2022/01/28 06:21:43;;;;;;;6.90;0.60;;;;;;;;;;5047398;28;20029;-74
2022/01/28 06:24:09;;;;;;;4.10;0.90;;;;;;;;;;5048722;28;20066;-75
2022/01/28 06:26:34;;;;;;;2.93;0.93;;;;;;;;;;5047820;28;20488;-75
2022/01/28 06:29:00;;;;;;;7.30;0.80;;;;;;;;;;5063774;28;20025;-74
2022/01/28 06:31:25;;;;;;;4.97;0.97;;;;;;;;;;5071260;28;20024;-73
2022/01/28 06:33:51;;;;;;;4.63;1.10;;;;;;;;;;5071526;28;20143;-76
2022/01/28 06:36:19;;;;;;;3.27;0.90;;;;;;;;;;5070079;28;20491;-74
2022/01/28 06:38:45;;;;;;;3.50;0.87;;;;;;;;;;5070946;28;20059;-73
2022/01/28 06:41:10;;;;;;;3.37;0.90;;;;;;;;;;5069952;28;20032;-73
2022/01/28 06:43:36;;;;;;;4.80;1.20;;;;;;;;;;5069812;28;20111;-74
2022/01/28 06:46:01;;;;;;;5.73;2.33;;;;;;;;;;5069569;28;20043;-75
2022/01/28 06:48:27;;;;;;;4.97;0.90;;;;;;;;;;5070086;28;20020;-74
2022/01/28 06:50:52;;;;;;;3.57;1.00;;;;;;;;;;5068561;28;20386;-74
2022/01/28 06:53:21;;;;;;;3.93;1.00;;;;;;;;;;5071723;28;20036;-75
2022/01/28 06:55:46;;;;;;;6.90;1.10;;;;;;;;;;5069446;28;20032;-74
2022/01/28 06:58:12;;;;;;;5.67;1.00;;;;;;;;;;5069185;28;20440;-74
2022/01/28 07:00:39;;;;;;;3.23;1.10;;;;;;;;;;5071680;28;20028;-74
2022/01/28 07:03:07;;;;;;;3.70;1.07;;;;;;;;;;5068787;28;20036;-75
2022/01/28 07:05:32;;;;;;;5.93;1.20;;;;;;;;;;5069110;28;20032;-74
2022/01/28 07:07:58;;;;;;;12.73;1.30;;;;;;;;;;5070548;28;20392;-75
2022/01/28 07:10:24;;;;;;;4.20;0.67;;;;;;;;;;5070379;28;20036;-75
2022/01/28 07:12:49;;;;;;;6.13;1.57;;;;;;;;;;5070142;28;20032;-75
2022/01/28 07:15:15;;;;;;;3.50;1.07;;;;;;;;;;5069700;28;20468;-74
2022/01/28 07:17:41;;;;;;;3.23;0.83;;;;;;;;;;5070706;28;20032;-74
2022/01/28 07:20:08;;;;;;;8.07;1.23;;;;;;;;;;5069492;28;20031;-74
2022/01/28 07:22:34;;;;;;;5.17;1.23;;;;;;;;;;5071938;28;20032;-74
2022/01/28 07:25:00;;;;;;;5.50;0.97;;;;;;;;;;5069343;28;20309;-75
2022/01/28 07:27:25;;;;;;;4.77;1.23;;;;;;;;;;5068270;28;20035;-75
2022/01/28 07:29:51;;;;;;;0.63;0.63;;;;;;;;;;5068127;28;20155;-73
2022/01/28 07:32:18;;;;;;;8.70;1.03;;;;;;;;;;5070913;28;20036;-75
2022/01/28 07:34:44;;;;;;;7.80;1.37;;;;;;;;;;5084791;28;20504;-74
2022/01/28 07:37:10;;;;;;;3.17;1.17;;;;;;;;;;5069672;28;20076;-74
2022/01/28 07:39:35;;;;;;;1.13;0.33;;;;;;;;;;5078295;28;20049;-74
2022/01/28 07:42:01;;;;;;;4.17;1.30;;;;;;;;;;5054340;28;20234;-72
2022/01/28 07:44:26;;;;;;;7.73;1.17;;;;;;;;;;5058688;28;20105;-74
2022/01/28 07:46:52;;;;;;;5.63;1.10;;;;;;;;;;5062631;28;20151;-74
2022/01/28 07:49:17;;;;;;;4.23;0.90;;;;;;;;;;5060410;28;20583;-73
2022/01/28 07:51:43;;;;;;;2.07;1.00;;;;;;;;;;5059967;28;20496;-75
2022/01/28 07:54:10;;;;;;;5.47;0.87;;;;;;;;;;5066365;28;20027;-74
2022/01/28 07:56:35;;;;;;;2.43;0.87;;;;;;;;;;5066439;28;20028;-74
2022/01/28 07:59:02;;;;;;;2.73;1.37;;;;;;;;;;5062531;28;20044;-75
2022/01/28 08:01:27;;;;;;;3.13;0.70;;;;;;;;;;5061610;28;20201;-74
2022/01/28 08:03:53;;;;;;;5.83;1.10;;;;;;;;;;5061008;28;20064;-74
2022/01/28 08:06:18;;;;;;;5.40;1.20;;;;;;;;;;5062428;28;20098;-74
2022/01/28 08:08:44;;;;;;;2.83;1.33;;;;;;;;;;5061613;28;20032;-73
2022/01/28 08:11:09;;;;;;;7.50;1.13;;;;;;;;;;5061872;28;20025;-74
2022/01/28 08:13:35;;;;;;;4.40;0.93;;;;;;;;;;5060991;28;20096;-75
2022/01/28 08:16:01;;;;;;;6.23;1.03;;;;;;;;;;5064624;28;20044;-74
2022/01/28 08:18:27;;;;;;;4.37;1.40;;;;;;;;;;5064237;28;20107;-75
2022/01/28 08:20:52;;;;;;;5.70;0.80;;;;;;;;;;5063040;28;20036;-74
2022/01/28 08:23:18;;;;;;;3.80;0.93;;;;;;;;;;5060821;28;20027;-74
2022/01/28 08:25:44;;;;;;;3.83;1.17;;;;;;;;;;5063512;28;20071;-75
2022/01/28 08:28:10;;;;;;;2.93;1.33;;;;;;;;;;5061623;28;20033;-74
2022/01/28 08:30:38;;;;;;;5.33;0.70;;;;;;;;;;5045719;28;20039;-75
2022/01/28 08:33:05;;;;;;;1.80;0.70;;;;;;;;;;5051281;28;20052;-75
2022/01/28 08:35:34;;;;;;;2.77;1.37;;;;;;;;;;5064680;28;20548;-74
2022/01/28 08:38:01;;;;;;;7.67;1.53;;;;;;;;;;5064125;28;20061;-74
2022/01/28 08:40:28;;;;;;;6.07;0.90;;;;;;;;;;5063460;28;20064;-74
2022/01/28 08:42:55;;;;;;;7.30;1.20;;;;;;;;;;5059297;28;20032;-75
2022/01/28 08:45:21;;;;;;;3.07;1.00;;;;;;;;;;5063655;28;20035;-75
2022/01/28 08:47:47;;;;;;;3.07;0.73;;;;;;;;;;5063788;28;20097;-74
2022/01/28 08:50:12;;;;;;;5.17;0.90;;;;;;;;;;5062489;28;20035;-73
2022/01/28 08:52:38;;;;;;;4.20;1.00;;;;;;;;;;5060786;28;20028;-74
2022/01/28 08:55:05;;;;;;;3.23;1.17;;;;;;;;;;5063486;28;20701;-73
2022/01/28 08:57:30;;;;;;;5.50;0.90;;;;;;;;;;5062411;28;20032;-73
2022/01/28 08:59:56;;;;;;;1.37;0.77;;;;;;;;;;5062391;28;20036;-75
2022/01/28 09:02:22;;;;;;;1.77;0.70;;;;;;;;;;5058143;28;20064;-75
2022/01/28 09:04:48;;;;;;;5.03;1.73;;;;;;;;;;5061076;28;20066;-74
2022/01/28 09:07:14;;;;;;;7.87;1.03;;;;;;;;;;5062980;28;20021;-74
2022/01/28 09:09:48;;;;;;;2.47;1.10;;;;;;;;;;5062056;28;20502;-74
2022/01/28 09:14:58;;;;;;;4.33;0.67;;;;;;;;;;5061790;28;20069;-75
2022/01/28 09:17:25;;;;;;;3.17;1.03;;;;;;;;;;5060057;28;20131;-74
2022/01/28 09:19:51;;;;;;;5.83;1.30;;;;;;;;;;5044657;28;20599;-74
2022/01/28 09:22:16;;;;;;;5.83;1.03;;;;;;;;;;5059444;28;20024;-75
2022/01/28 09:24:42;;;;;;;5.20;1.33;;;;;;;;;;5062758;28;20040;-75
2022/01/28 09:27:08;;;;;;;2.17;0.80;;;;;;;;;;5062138;28;20028;-75
2022/01/28 09:29:33;;;;;;;3.20;0.80;;;;;;;;;;5059604;28;20032;-74
2022/01/28 09:32:00;;;;;;;3.70;1.10;;;;;;;;;;5060077;28;20036;-75
2022/01/28 09:34:27;;;;;;;4.97;1.23;;;;;;;;;;5062379;28;20032;-76
2022/01/28 09:36:53;;;;;;;2.00;0.80;;;;;;;;;;5060022;28;20432;-75
2022/01/28 09:39:20;;;;;;;6.50;0.97;;;;;;;;;;5061185;28;20048;-74
2022/01/28 09:41:47;;;;;;;7.83;1.77;;;;;;;;;;5060000;28;20047;-75
2022/01/28 09:44:16;;;;;;;5.77;1.10;;;;;;;;;;5062343;28;20032;-74
2022/01/28 09:46:42;;;;;;;8.80;1.30;;;;;;;;;;5059926;28;20432;-75
2022/01/28 09:49:08;;;;;;;7.40;1.13;;;;;;;;;;5059511;28;20435;-75
2022/01/28 09:51:33;;;;;;;7.50;1.33;;;;;;;;;;5060670;28;20036;-74
2022/01/28 09:53:59;;;;;;;4.63;1.00;;;;;;;;;;5061698;28;20059;-75
2022/01/28 09:56:24;;;;;;;7.27;1.10;;;;;;;;;;5061560;28;20086;-75
2022/01/28 09:58:50;;;;;;;6.23;2.13;;;;;;;;;;5061034;28;20441;-75
2022/01/28 10:01:16;;;;;;;4.07;1.00;;;;;;;;;;5059327;28;20125;-74
2022/01/28 10:03:41;;;;;;;5.47;1.67;;;;;;;;;;5062756;28;20210;-74
2022/01/28 10:06:07;;;;;;;7.87;1.87;;;;;;;;;;5065443;28;20420;-74
2022/01/28 10:08:33;;;;;;;6.67;1.00;;;;;;;;;;5065068;28;20028;-75
2022/01/28 10:11:15;;;;;;;6.73;1.43;;;;;;;;;;5066273;28;20316;-75
2022/01/28 10:13:49;;;;;;;6.03;1.90;;;;;;;;;;5063663;28;20043;-74
2022/01/28 10:16:24;;;;;;;10.80;2.33;;;;;;;;;;5062439;28;20029;-73
2022/01/28 10:19:10;;;;;;;7.90;1.40;;;;;;;;;;5065353;28;20031;-75
2022/01/28 10:21:43;;;;;;;8.97;1.60;;;;;;;;;;5045373;28;20036;-75
2022/01/28 10:24:35;;;;;;;6.90;1.30;;;;;;;;;;5059933;28;20419;-75
2022/01/28 10:27:06;;;;;;;5.30;1.60;;;;;;;;;;5066025;28;20044;-74
2022/01/28 10:29:34;;;;;;;10.03;2.07;;;;;;;;;;5063611;28;20041;-75
2022/01/28 10:32:01;;;;;;;9.87;2.03;;;;;;;;;;5059947;28;20051;-74
2022/01/28 10:34:31;;;;;;;7.37;1.80;;;;;;;;;;5064692;28;20535;-75
2022/01/28 10:37:09;;;;;;;12.70;2.67;;;;;;;;;;5066464;28;20111;-74
2022/01/28 10:39:50;;;;;;;5.03;1.53;;;;;;;;;;5067541;28;20119;-73
2022/01/28 10:42:19;;;;;;;7.07;1.30;;;;;;;;;;5059712;28;20028;-75
2022/01/28 10:45:13;;;;;;;17.30;5.30;;;;;;;;;;5069959;28;20032;-75
2022/01/28 10:47:46;;;;;;;8.53;2.43;;;;;;;;;;5064340;28;20035;-75
2022/01/28 10:50:29;;;;;;;6.37;2.03;;;;;;;;;;5064825;28;20508;-74
2022/01/28 10:53:04;;;;;;;8.30;2.00;;;;;;;;;;5059611;28;20036;-76
2022/01/28 10:55:31;;;;;;;6.70;1.40;;;;;;;;;;5065445;28;20035;-73
2022/01/28 10:58:02;;;;;;;9.67;2.33;;;;;;;;;;5065843;28;20028;-76
2022/01/28 11:00:34;;;;;;;7.63;1.30;;;;;;;;;;5062724;28;20036;-74
2022/01/28 11:03:01;;;;;;;11.80;3.10;;;;;;;;;;5060185;28;20025;-76
2022/01/28 11:05:29;;;;;;;9.40;1.93;;;;;;;;;;5063118;28;20032;-73
2022/01/28 11:07:56;;;;;;;7.00;1.70;;;;;;;;;;5062362;28;20032;-75
2022/01/28 11:10:22;;;;;;;24.87;7.53;;;;;;;;;;5064234;28;20029;-74
2022/01/28 11:12:49;;;;;;;2.90;1.20;;;;;;;;;;5062705;28;20039;-73
2022/01/28 11:15:15;;;;;;;6.10;1.77;;;;;;;;;;5062882;28;20017;-75
2022/01/28 11:17:40;;;;;;;8.57;1.80;;;;;;;;;;5062752;28;20029;-75
2022/01/28 11:20:08;;;;;;;11.70;2.33;;;;;;;;;;5062303;28;20450;-76
2022/01/28 11:22:34;;;;;;;11.53;3.23;;;;;;;;;;5062123;28;20032;-75
2022/01/28 11:25:27;;;;;;;6.50;2.20;;;;;;;;;;5062191;28;20992;-74
2022/01/28 11:27:53;;;;;;;10.13;2.60;;;;;;;;;;5062222;28;20027;-74
2022/01/28 11:30:28;;;;;;;12.37;2.70;;;;;;;;;;5062700;28;20032;-75
2022/01/28 11:33:01;;;;;;;15.17;2.07;;;;;;;;;;5058543;28;20345;-74
2022/01/28 11:35:37;;;;;;;10.17;2.20;;;;;;;;;;5062195;28;20029;-75
2022/01/28 11:38:28;;;;;;;9.17;1.60;;;;;;;;;;5062380;28;20057;-74
2022/01/28 11:41:19;;;;;;;5.20;1.73;;;;;;;;;;5063248;28;20024;-74
2022/01/28 11:43:54;;;;;;;7.53;1.73;;;;;;;;;;5061782;28;20036;-74
2022/01/28 11:46:31;;;;;;;5.90;2.13;;;;;;;;;;5044890;28;20495;-75
2022/01/28 11:49:02;;;;;;;11.27;2.57;;;;;;;;;;5062201;28;20055;-74
2022/01/28 11:51:41;;;;;;;12.37;2.70;;;;;;;;;;5059267;28;20029;-74
2022/01/28 11:54:18;;;;;;;7.93;2.77;;;;;;;;;;5061671;28;20028;-75
2022/01/28 11:56:56;;;;;;;16.23;2.77;;;;;;;;;;5061801;28;20453;-75
2022/01/28 11:59:26;;;;;;;4.33;2.00;;;;;;;;;;5062825;28;20431;-74
2022/01/28 12:01:51;;;;;;;12.30;3.00;;;;;;;;;;5060873;28;20032;-74
2022/01/28 12:04:34;;;;;;;15.73;3.17;;;;;;;;;;5062946;28;20025;-74
2022/01/28 12:07:03;;;;;;;11.63;2.47;;;;;;;;;;5062457;28;20468;-75
2022/01/28 12:09:30;;;;;;;9.33;2.43;;;;;;;;;;5064750;28;20448;-75
2022/01/28 12:11:55;;;;;;;11.07;2.93;;;;;;;;;;5059102;28;20035;-76
2022/01/28 12:14:54;;;;;;;11.70;2.10;;;;;;;;;;5063277;28;20025;-74
2022/01/28 12:17:33;;;;;;;12.70;3.10;;;;;;;;;;5060983;28;20016;-73
2022/01/28 12:20:14;;;;;;;9.33;2.10;;;;;;;;;;5060931;28;20669;-75
2022/01/28 12:23:08;;;;;;;10.85;2.10;;;;;;;;;;5061258;28;20050;-75
2022/01/28 12:25:36;;;;;;;10.60;2.50;;;;;;;;;;5060897;28;20028;-74
2022/01/28 12:28:20;;;;;;;6.63;2.70;;;;;;;;;;5061292;28;21239;-74
2022/01/28 12:31:04;;;;;;;10.60;2.30;;;;;;;;;;5060176;28;20078;-74
2022/01/28 12:33:38;;;;;;;10.57;3.00;;;;;;;;;;5059583;28;20039;-74
2022/01/28 12:36:13;;;;;;;16.50;2.50;;;;;;;;;;5062852;28;20032;-75
2022/01/28 12:38:54;;;;;;;10.10;2.20;;;;;;;;;;5077289;28;20044;-74
2022/01/28 12:41:21;;;;;;;5.77;2.20;;;;;;;;;;5060574;28;20024;-74
2022/01/28 12:43:48;;;;;;;11.23;2.40;;;;;;;;;;5061063;28;20124;-72
2022/01/28 12:46:15;;;;;;;7.40;2.13;;;;;;;;;;5061779;28;20027;-74
2022/01/28 12:48:53;;;;;;;7.03;1.80;;;;;;;;;;5063114;28;20012;-74
2022/01/28 12:51:23;;;;;;;7.73;1.77;;;;;;;;;;5057930;28;20024;-75
2022/01/28 12:53:55;;;;;;;20.37;2.47;;;;;;;;;;5061663;28;20023;-75
2022/01/28 12:56:32;;;;;;;4.72;2.00;;;;;;;;;;5061732;28;20029;-74
2022/01/28 12:58:58;;;;;;;12.27;2.43;;;;;;;;;;5065477;28;20580;-75
2022/01/28 13:01:24;;;;;;;6.03;1.90;;;;;;;;;;5062418;28;20063;-74
2022/01/28 13:04:03;;;;;;;10.27;1.83;;;;;;;;;;5063160;28;20432;-74
2022/01/28 13:09:09;;;;;;;8.97;2.00;;;;;;;;;;5067090;28;20111;-74
2022/01/28 13:12:00;;;;;;;2.67;1.50;;;;;;;;;;5067030;28;20028;-75
2022/01/28 13:14:34;;;;;;;11.10;2.00;;;;;;;;;;5066056;28;20068;-76
2022/01/28 13:17:08;;;;;;;9.67;1.97;;;;;;;;;;5048684;28;20097;-74
2022/01/28 13:19:34;;;;;;;8.03;1.47;;;;;;;;;;5066555;28;20462;-77
2022/01/28 13:22:02;;;;;;;11.03;2.13;;;;;;;;;;5067932;28;20028;-76
2022/01/28 13:24:29;;;;;;;7.37;2.07;;;;;;;;;;5068635;28;20499;-75
2022/01/28 13:26:56;;;;;;;4.80;1.70;;;;;;;;;;5066784;28;20032;-76
2022/01/28 13:29:34;;;;;;;8.87;2.23;;;;;;;;;;5067391;28;20036;-76
2022/01/28 13:32:06;;;;;;;4.87;1.97;;;;;;;;;;5066949;28;20028;-75
2022/01/28 13:34:48;;;;;;;6.13;1.27;;;;;;;;;;5067142;28;20020;-74
2022/01/28 13:37:40;;;;;;;5.53;1.70;;;;;;;;;;5067552;28;20300;-74
2022/01/28 13:40:24;;;;;;;3.88;1.58;;;;;;;;;;5070492;28;20048;-75
2022/01/28 13:43:09;;;;;;;13.60;2.57;;;;;;;;;;5071486;28;20028;-75
2022/01/28 13:45:42;;;;;;;6.40;1.70;;;;;;;;;;5072623;28;20396;-74
2022/01/28 13:48:33;;;;;;;12.83;1.40;;;;;;;;;;5070764;28;20436;-75
2022/01/28 13:51:04;;;;;;;10.93;1.63;;;;;;;;;;5070165;28;20480;-76
2022/01/28 13:56:02;;;;;;;7.70;1.43;;;;;;;;;;5071949;28;20028;-75
2022/01/28 13:58:28;;;;;;;;;;;;;;;;;;5072497;28;20469;-75
2022/01/28 14:00:55;;;;;;;7.80;1.80;;;;;;;;;;5072112;28;19912;-74
2022/01/28 14:03:26;;;;;;;8.03;1.80;;;;;;;;;;5071962;28;20372;-75
2022/01/28 14:06:00;;;;;;;8.47;1.93;;;;;;;;;;5070351;28;20111;-74
2022/01/28 14:08:44;;;;;;;6.10;2.00;;;;;;;;;;5070005;28;20035;-75
2022/01/28 14:11:34;;;;;;;9.43;1.87;;;;;;;;;;5071664;28;20069;-75
2022/01/28 14:14:03;;;;;;;7.30;1.70;;;;;;;;;;5072293;28;20025;-74
2022/01/28 14:16:28;;;;;;;9.77;2.13;;;;;;;;;;5070753;28;20047;-75
2022/01/28 14:18:54;;;;;;;8.03;2.07;;;;;;;;;;5071600;28;20490;-75
2022/01/28 14:21:19;;;;;;;10.80;2.03;;;;;;;;;;5071883;28;20115;-75
2022/01/28 14:23:45;;;;;;;16.33;2.33;;;;;;;;;;5071972;28;20056;-75
2022/01/28 14:26:10;;;;;;;7.10;2.23;;;;;;;;;;5087312;28;20020;-75
2022/01/28 14:29:08;;;;;;;7.53;2.57;;;;;;;;;;5071767;28;20086;-74
2022/01/28 14:31:25;;;;;;;7.80;2.33;;;;;;;;;;5071726;28;20032;-74
2022/01/28 14:33:54;;;;;;;23.13;2.97;;;;;;;;;;5069657;28;20029;-75
2022/01/28 14:36:22;;;;;;;12.93;2.57;;;;;;;;;;5071667;28;20024;-74
2022/01/28 14:38:47;;;;;;;9.13;2.47;;;;;;;;;;5071217;28;20048;-74
2022/01/28 14:41:14;;;;;;;11.93;2.57;;;;;;;;;;5071592;28;20480;-75
2022/01/28 14:43:42;;;;;;;14.73;2.93;;;;;;;;;;5070271;28;20651;-75
2022/01/28 14:46:07;;;;;;;14.00;2.37;;;;;;;;;;5071180;28;20114;-75
2022/01/28 14:48:33;;;;;;;12.23;2.70;;;;;;;;;;5070417;28;20025;-74
2022/01/28 14:51:01;;;;;;;5.97;1.97;;;;;;;;;;5071093;28;20028;-75
2022/01/28 14:53:26;;;;;;;6.07;2.20;;;;;;;;;;5069880;28;20020;-75
2022/01/28 14:55:52;;;;;;;7.67;2.17;;;;;;;;;;5071109;28;20025;-75
2022/01/28 14:58:18;;;;;;;8.43;1.73;;;;;;;;;;5071033;28;20536;-75
2022/01/28 15:00:44;;;;;;;14.17;2.17;;;;;;;;;;5070058;28;20376;-75
2022/01/28 15:03:10;;;;;;;11.77;2.73;;;;;;;;;;5070783;28;20032;-74
2022/01/28 15:05:37;;;;;;;6.00;1.70;;;;;;;;;;5069723;28;20028;-74
2022/01/28 15:08:08;;;;;;;7.43;2.00;;;;;;;;;;5070883;28;20059;-75
2022/01/28 15:10:35;;;;;;;13.63;2.87;;;;;;;;;;5069282;28;20028;-74
2022/01/28 15:13:00;;;;;;;8.03;2.27;;;;;;;;;;5070209;28;20025;-75
2022/01/28 15:15:26;;;;;;;14.70;3.87;;;;;;;;;;5069395;28;20027;-75
2022/01/28 15:17:52;;;;;;;16.67;2.50;;;;;;;;;;5069002;28;20105;-74
2022/01/28 15:20:17;;;;;;;13.73;2.23;;;;;;;;;;5069355;28;20028;-74
2022/01/28 15:22:43;;;;;;;16.70;3.17;;;;;;;;;;5070806;28;20381;-75
2022/01/28 15:25:09;;;;;;;13.23;2.57;;;;;;;;;;5069401;28;20024;-74
2022/01/28 15:27:34;;;;;;;13.33;2.23;;;;;;;;;;5069268;28;20522;-75
2022/01/28 15:30:04;;;;;;;5.70;2.43;;;;;;;;;;5070457;28;20035;-74
2022/01/28 15:37:59;;;;;;;10.33;2.70;;;;;;;;;;5070978;28;20537;-75
2022/01/28 15:40:25;;;;;;;14.23;2.77;;;;;;;;;;5071606;28;20204;-75
2022/01/28 15:42:53;;;;;;;16.50;2.10;;;;;;;;;;5069851;28;20433;-75
2022/01/28 15:45:20;;;;;;;6.67;1.70;;;;;;;;;;5071340;28;20032;-74
2022/01/28 15:47:46;;;;;;;12.63;2.80;;;;;;;;;;5071162;28;20033;-74
2022/01/28 15:50:12;;;;;;;21.60;2.43;;;;;;;;;;5068519;28;20430;-74
2022/01/28 15:52:38;;;;;;;10.43;2.23;;;;;;;;;;5070164;28;20028;-75
2022/01/28 15:55:05;;;;;;;10.47;2.30;;;;;;;;;;5068083;28;20032;-74
2022/01/28 15:57:31;;;;;;;9.97;2.40;;;;;;;;;;5069986;28;20116;-73
2022/01/28 15:59:56;;;;;;;21.77;3.27;;;;;;;;;;5068220;28;20020;-74
2022/01/28 16:02:22;;;;;;;12.73;2.20;;;;;;;;;;5069543;28;20492;-74
2022/01/28 16:04:47;;;;;;;13.57;2.80;;;;;;;;;;5066920;28;20024;-75
2022/01/28 16:07:15;;;;;;;18.33;2.20;;;;;;;;;;5067553;28;20128;-76
2022/01/28 16:09:52;;;;;;;16.33;3.57;;;;;;;;;;5070191;28;20031;-76
2022/01/28 16:12:44;;;;;;;15.10;3.27;;;;;;;;;;5068729;28;20027;-75
2022/01/28 16:15:19;;;;;;;9.07;2.63;;;;;;;;;;5069353;28;20479;-75
2022/01/28 16:17:45;;;;;;;15.70;2.73;;;;;;;;;;5069855;28;20069;-74
2022/01/28 16:20:10;;;;;;;7.10;2.00;;;;;;;;;;5069550;28;20392;-75
2022/01/28 16:22:36;;;;;;;15.17;2.60;;;;;;;;;;5079119;28;20585;-75
2022/01/28 16:25:02;;;;;;;15.63;2.87;;;;;;;;;;5090452;28;20034;-75
2022/01/28 16:27:27;;;;;;;9.47;2.60;;;;;;;;;;5090367;28;20035;-75
2022/01/28 16:29:53;;;;;;;7.50;2.03;;;;;;;;;;5089885;28;20114;-76
2022/01/28 16:32:21;;;;;;;11.83;2.10;;;;;;;;;;5088910;28;20032;-76
2022/01/28 16:34:47;;;;;;;11.87;2.50;;;;;;;;;;5089604;28;20012;-75